sensor_id;sensor_type;location;lat;lon;timestamp;temperature;humidity
66928;DHT22;59882;45.624;11.698;2023-11-19T00:00:29;6.50;71.20
66928;DHT22;59882;45.624;11.698;2023-11-19T00:02:54;6.30;71.40
66928;DHT22;59882;45.624;11.698;2023-11-19T00:05:20;6.20;71.10
66928;DHT22;59882;45.624;11.698;2023-11-19T00:07:46;6.20;71.60
66928;DHT22;59882;45.624;11.698;2023-11-19T00:10:16;6.10;71.90
66928;DHT22;59882;45.624;11.698;2023-11-19T00:12:46;6.10;71.60
66928;DHT22;59882;45.624;11.698;2023-11-19T00:15:12;6.10;71.50
66928;DHT22;59882;45.624;11.698;2023-11-19T00:17:39;6.00;71.80
66928;DHT22;59882;45.624;11.698;2023-11-19T00:20:15;6.00;71.60
66928;DHT22;59882;45.624;11.698;2023-11-19T00:22:41;6.00;72.20
66928;DHT22;59882;45.624;11.698;2023-11-19T00:25:08;5.90;72.40
66928;DHT22;59882;45.624;11.698;2023-11-19T00:27:34;6.00;72.40
66928;DHT22;59882;45.624;11.698;2023-11-19T00:30:00;6.00;72.80
66928;DHT22;59882;45.624;11.698;2023-11-19T00:32:25;6.00;72.60
66928;DHT22;59882;45.624;11.698;2023-11-19T00:34:51;6.00;72.80
66928;DHT22;59882;45.624;11.698;2023-11-19T00:37:17;6.00;72.80
66928;DHT22;59882;45.624;11.698;2023-11-19T00:39:43;6.00;72.70
66928;DHT22;59882;45.624;11.698;2023-11-19T00:42:09;6.00;72.70
66928;DHT22;59882;45.624;11.698;2023-11-19T00:44:39;5.90;72.80
66928;DHT22;59882;45.624;11.698;2023-11-19T00:47:04;5.90;72.90
66928;DHT22;59882;45.624;11.698;2023-11-19T00:49:31;5.90;73.00
66928;DHT22;59882;45.624;11.698;2023-11-19T00:51:58;5.90;73.10
66928;DHT22;59882;45.624;11.698;2023-11-19T00:54:24;6.00;73.30
66928;DHT22;59882;45.624;11.698;2023-11-19T00:56:51;6.00;73.10
66928;DHT22;59882;45.624;11.698;2023-11-19T00:59:18;6.10;73.00
66928;DHT22;59882;45.624;11.698;2023-11-19T01:01:43;6.20;72.90
66928;DHT22;59882;45.624;11.698;2023-11-19T01:04:09;6.20;72.70
66928;DHT22;59882;45.624;11.698;2023-11-19T01:06:35;6.30;73.10
66928;DHT22;59882;45.624;11.698;2023-11-19T01:09:00;6.30;72.90
66928;DHT22;59882;45.624;11.698;2023-11-19T01:11:26;6.30;72.80
66928;DHT22;59882;45.624;11.698;2023-11-19T01:13:52;6.40;72.40
66928;DHT22;59882;45.624;11.698;2023-11-19T01:16:18;6.40;72.50
66928;DHT22;59882;45.624;11.698;2023-11-19T01:18:46;6.40;72.70
66928;DHT22;59882;45.624;11.698;2023-11-19T01:21:12;6.40;73.00
66928;DHT22;59882;45.624;11.698;2023-11-19T01:23:37;6.40;72.80
66928;DHT22;59882;45.624;11.698;2023-11-19T01:26:03;6.40;72.60
66928;DHT22;59882;45.624;11.698;2023-11-19T01:28:31;6.40;72.40
66928;DHT22;59882;45.624;11.698;2023-11-19T01:30:56;6.50;72.40
66928;DHT22;59882;45.624;11.698;2023-11-19T01:33:22;6.40;72.30
66928;DHT22;59882;45.624;11.698;2023-11-19T01:35:47;6.50;72.20
66928;DHT22;59882;45.624;11.698;2023-11-19T01:38:13;6.50;72.20
66928;DHT22;59882;45.624;11.698;2023-11-19T01:40:39;6.50;72.00
66928;DHT22;59882;45.624;11.698;2023-11-19T01:43:04;6.40;72.20
66928;DHT22;59882;45.624;11.698;2023-11-19T01:45:31;6.40;72.20
66928;DHT22;59882;45.624;11.698;2023-11-19T01:47:59;6.40;72.50
66928;DHT22;59882;45.624;11.698;2023-11-19T01:50:26;6.40;72.50
66928;DHT22;59882;45.624;11.698;2023-11-19T01:52:54;6.40;72.70
66928;DHT22;59882;45.624;11.698;2023-11-19T01:55:21;6.30;72.80
66928;DHT22;59882;45.624;11.698;2023-11-19T01:57:48;6.30;72.80
66928;DHT22;59882;45.624;11.698;2023-11-19T02:00:15;6.30;72.90
66928;DHT22;59882;45.624;11.698;2023-11-19T02:02:42;6.30;72.90
66928;DHT22;59882;45.624;11.698;2023-11-19T02:05:09;6.30;73.10
66928;DHT22;59882;45.624;11.698;2023-11-19T02:07:35;6.30;73.10
66928;DHT22;59882;45.624;11.698;2023-11-19T02:10:01;6.30;73.30
66928;DHT22;59882;45.624;11.698;2023-11-19T02:12:31;6.30;73.30
66928;DHT22;59882;45.624;11.698;2023-11-19T02:14:59;6.30;73.40
66928;DHT22;59882;45.624;11.698;2023-11-19T02:17:29;6.30;73.50
66928;DHT22;59882;45.624;11.698;2023-11-19T02:19:56;6.30;73.40
66928;DHT22;59882;45.624;11.698;2023-11-19T02:22:22;6.30;73.10
66928;DHT22;59882;45.624;11.698;2023-11-19T02:24:51;6.30;73.10
66928;DHT22;59882;45.624;11.698;2023-11-19T02:30:25;6.30;73.60
66928;DHT22;59882;45.624;11.698;2023-11-19T02:33:01;6.30;73.60
66928;DHT22;59882;45.624;11.698;2023-11-19T02:35:31;6.30;73.60
66928;DHT22;59882;45.624;11.698;2023-11-19T02:37:58;6.20;73.60
66928;DHT22;59882;45.624;11.698;2023-11-19T02:40:24;6.20;73.70
66928;DHT22;59882;45.624;11.698;2023-11-19T02:42:53;6.20;74.00
66928;DHT22;59882;45.624;11.698;2023-11-19T02:45:24;6.10;73.90
66928;DHT22;59882;45.624;11.698;2023-11-19T02:47:51;6.10;74.10
66928;DHT22;59882;45.624;11.698;2023-11-19T02:50:18;6.20;73.80
66928;DHT22;59882;45.624;11.698;2023-11-19T02:52:51;6.20;74.10
66928;DHT22;59882;45.624;11.698;2023-11-19T02:55:16;6.10;74.20
66928;DHT22;59882;45.624;11.698;2023-11-19T02:57:43;6.20;74.10
66928;DHT22;59882;45.624;11.698;2023-11-19T03:00:17;6.20;74.00
66928;DHT22;59882;45.624;11.698;2023-11-19T03:02:46;6.20;73.90
66928;DHT22;59882;45.624;11.698;2023-11-19T03:05:14;6.30;73.80
66928;DHT22;59882;45.624;11.698;2023-11-19T03:07:41;6.30;73.80
66928;DHT22;59882;45.624;11.698;2023-11-19T03:10:08;6.30;73.50
66928;DHT22;59882;45.624;11.698;2023-11-19T03:12:34;6.20;73.70
66928;DHT22;59882;45.624;11.698;2023-11-19T03:15:00;6.20;73.70
66928;DHT22;59882;45.624;11.698;2023-11-19T03:17:26;6.20;73.70
66928;DHT22;59882;45.624;11.698;2023-11-19T03:19:52;6.10;73.80
66928;DHT22;59882;45.624;11.698;2023-11-19T03:22:17;6.10;74.00
66928;DHT22;59882;45.624;11.698;2023-11-19T03:24:43;6.00;74.10
66928;DHT22;59882;45.624;11.698;2023-11-19T03:27:08;6.00;73.80
66928;DHT22;59882;45.624;11.698;2023-11-19T03:29:34;6.00;74.00
66928;DHT22;59882;45.624;11.698;2023-11-19T03:32:00;5.90;73.90
66928;DHT22;59882;45.624;11.698;2023-11-19T03:34:25;5.90;73.70
66928;DHT22;59882;45.624;11.698;2023-11-19T03:36:51;5.90;74.10
66928;DHT22;59882;45.624;11.698;2023-11-19T03:39:17;5.90;74.10
66928;DHT22;59882;45.624;11.698;2023-11-19T03:41:45;5.80;74.00
66928;DHT22;59882;45.624;11.698;2023-11-19T03:44:12;5.80;74.20
66928;DHT22;59882;45.624;11.698;2023-11-19T03:46:38;5.80;74.30
66928;DHT22;59882;45.624;11.698;2023-11-19T03:49:03;5.70;74.20
66928;DHT22;59882;45.624;11.698;2023-11-19T03:51:29;5.70;74.70
66928;DHT22;59882;45.624;11.698;2023-11-19T03:53:55;5.60;74.70
66928;DHT22;59882;45.624;11.698;2023-11-19T03:56:21;5.60;75.10
66928;DHT22;59882;45.624;11.698;2023-11-19T03:58:46;5.50;74.80
66928;DHT22;59882;45.624;11.698;2023-11-19T04:01:12;5.60;74.70
66928;DHT22;59882;45.624;11.698;2023-11-19T04:03:41;5.60;74.80
66928;DHT22;59882;45.624;11.698;2023-11-19T04:06:07;5.60;75.10
66928;DHT22;59882;45.624;11.698;2023-11-19T04:08:32;5.60;75.10
66928;DHT22;59882;45.624;11.698;2023-11-19T04:10:58;5.50;75.20
66928;DHT22;59882;45.624;11.698;2023-11-19T04:13:25;5.50;75.30
66928;DHT22;59882;45.624;11.698;2023-11-19T04:15:50;5.50;75.10
66928;DHT22;59882;45.624;11.698;2023-11-19T04:18:16;5.50;75.30
66928;DHT22;59882;45.624;11.698;2023-11-19T04:20:42;5.50;75.00
66928;DHT22;59882;45.624;11.698;2023-11-19T04:23:08;5.50;75.20
66928;DHT22;59882;45.624;11.698;2023-11-19T04:25:35;5.50;75.30
66928;DHT22;59882;45.624;11.698;2023-11-19T04:28:01;5.40;75.10
66928;DHT22;59882;45.624;11.698;2023-11-19T04:30:27;5.50;75.10
66928;DHT22;59882;45.624;11.698;2023-11-19T04:32:53;5.50;75.50
66928;DHT22;59882;45.624;11.698;2023-11-19T04:35:19;5.50;75.20
66928;DHT22;59882;45.624;11.698;2023-11-19T04:37:44;5.50;75.70
66928;DHT22;59882;45.624;11.698;2023-11-19T04:40:10;5.50;75.50
66928;DHT22;59882;45.624;11.698;2023-11-19T04:42:37;5.50;75.60
66928;DHT22;59882;45.624;11.698;2023-11-19T04:45:07;5.50;75.50
66928;DHT22;59882;45.624;11.698;2023-11-19T04:47:38;5.50;75.30
66928;DHT22;59882;45.624;11.698;2023-11-19T04:50:04;5.40;75.50
66928;DHT22;59882;45.624;11.698;2023-11-19T04:52:30;5.40;75.40
66928;DHT22;59882;45.624;11.698;2023-11-19T04:54:56;5.40;75.50
66928;DHT22;59882;45.624;11.698;2023-11-19T04:57:21;5.30;75.50
66928;DHT22;59882;45.624;11.698;2023-11-19T04:59:47;5.30;75.50
66928;DHT22;59882;45.624;11.698;2023-11-19T05:02:12;5.30;75.80
66928;DHT22;59882;45.624;11.698;2023-11-19T05:04:43;5.20;75.90
66928;DHT22;59882;45.624;11.698;2023-11-19T05:07:12;5.20;76.10
66928;DHT22;59882;45.624;11.698;2023-11-19T05:09:37;5.20;76.10
66928;DHT22;59882;45.624;11.698;2023-11-19T05:12:03;5.20;75.70
66928;DHT22;59882;45.624;11.698;2023-11-19T05:14:29;5.30;76.00
66928;DHT22;59882;45.624;11.698;2023-11-19T05:16:54;5.30;76.20
66928;DHT22;59882;45.624;11.698;2023-11-19T05:19:20;5.30;76.20
66928;DHT22;59882;45.624;11.698;2023-11-19T05:21:45;5.40;76.00
66928;DHT22;59882;45.624;11.698;2023-11-19T05:24:11;5.40;75.70
66928;DHT22;59882;45.624;11.698;2023-11-19T05:26:38;5.40;75.60
66928;DHT22;59882;45.624;11.698;2023-11-19T05:29:03;5.40;75.70
66928;DHT22;59882;45.624;11.698;2023-11-19T05:31:30;5.30;75.30
66928;DHT22;59882;45.624;11.698;2023-11-19T05:33:55;5.30;75.30
66928;DHT22;59882;45.624;11.698;2023-11-19T05:36:21;5.30;75.30
66928;DHT22;59882;45.624;11.698;2023-11-19T05:38:47;5.30;75.30
66928;DHT22;59882;45.624;11.698;2023-11-19T05:41:12;5.30;75.30
66928;DHT22;59882;45.624;11.698;2023-11-19T05:43:38;5.20;75.20
66928;DHT22;59882;45.624;11.698;2023-11-19T05:46:06;5.20;75.30
66928;DHT22;59882;45.624;11.698;2023-11-19T05:48:32;5.20;75.30
66928;DHT22;59882;45.624;11.698;2023-11-19T05:50:58;5.10;75.40
66928;DHT22;59882;45.624;11.698;2023-11-19T05:53:24;5.00;75.60
66928;DHT22;59882;45.624;11.698;2023-11-19T05:55:50;5.00;75.90
66928;DHT22;59882;45.624;11.698;2023-11-19T05:58:28;4.90;76.00
66928;DHT22;59882;45.624;11.698;2023-11-19T06:00:57;4.90;75.80
66928;DHT22;59882;45.624;11.698;2023-11-19T06:03:25;4.90;75.90
66928;DHT22;59882;45.624;11.698;2023-11-19T06:05:51;4.90;75.90
66928;DHT22;59882;45.624;11.698;2023-11-19T06:08:17;4.90;76.00
66928;DHT22;59882;45.624;11.698;2023-11-19T06:10:43;4.90;76.20
66928;DHT22;59882;45.624;11.698;2023-11-19T06:13:14;4.90;76.20
66928;DHT22;59882;45.624;11.698;2023-11-19T06:15:41;5.00;76.10
66928;DHT22;59882;45.624;11.698;2023-11-19T06:18:07;5.00;75.80
66928;DHT22;59882;45.624;11.698;2023-11-19T06:20:33;5.00;75.60
66928;DHT22;59882;45.624;11.698;2023-11-19T06:23:00;5.00;75.50
66928;DHT22;59882;45.624;11.698;2023-11-19T06:25:25;5.10;75.80
66928;DHT22;59882;45.624;11.698;2023-11-19T06:27:52;5.00;75.90
66928;DHT22;59882;45.624;11.698;2023-11-19T06:30:18;5.00;75.80
66928;DHT22;59882;45.624;11.698;2023-11-19T06:32:44;5.00;75.70
66928;DHT22;59882;45.624;11.698;2023-11-19T06:35:10;4.90;75.60
66928;DHT22;59882;45.624;11.698;2023-11-19T06:37:38;4.90;75.70
66928;DHT22;59882;45.624;11.698;2023-11-19T06:40:04;4.80;75.90
66928;DHT22;59882;45.624;11.698;2023-11-19T06:42:30;4.80;76.10
66928;DHT22;59882;45.624;11.698;2023-11-19T06:44:56;4.80;76.30
66928;DHT22;59882;45.624;11.698;2023-11-19T06:47:28;4.70;76.60
66928;DHT22;59882;45.624;11.698;2023-11-19T06:49:54;4.70;76.90
66928;DHT22;59882;45.624;11.698;2023-11-19T06:52:20;4.70;76.40
66928;DHT22;59882;45.624;11.698;2023-11-19T06:54:46;4.80;76.70
66928;DHT22;59882;45.624;11.698;2023-11-19T06:57:12;4.80;76.80
66928;DHT22;59882;45.624;11.698;2023-11-19T06:59:38;4.80;76.60
66928;DHT22;59882;45.624;11.698;2023-11-19T07:02:05;4.80;76.50
66928;DHT22;59882;45.624;11.698;2023-11-19T07:04:32;4.80;76.50
66928;DHT22;59882;45.624;11.698;2023-11-19T07:06:59;4.80;76.70
66928;DHT22;59882;45.624;11.698;2023-11-19T07:09:25;4.80;77.00
66928;DHT22;59882;45.624;11.698;2023-11-19T07:11:51;4.80;76.80
66928;DHT22;59882;45.624;11.698;2023-11-19T07:14:18;4.80;77.00
66928;DHT22;59882;45.624;11.698;2023-11-19T07:16:44;4.80;77.10
66928;DHT22;59882;45.624;11.698;2023-11-19T07:19:11;4.80;77.30
66928;DHT22;59882;45.624;11.698;2023-11-19T07:21:41;4.80;77.50
66928;DHT22;59882;45.624;11.698;2023-11-19T07:24:09;4.80;77.40
66928;DHT22;59882;45.624;11.698;2023-11-19T07:26:35;4.80;77.80
66928;DHT22;59882;45.624;11.698;2023-11-19T07:29:01;4.80;77.90
66928;DHT22;59882;45.624;11.698;2023-11-19T07:31:27;4.90;78.30
66928;DHT22;59882;45.624;11.698;2023-11-19T07:33:53;5.00;78.20
66928;DHT22;59882;45.624;11.698;2023-11-19T07:36:19;5.10;78.20
66928;DHT22;59882;45.624;11.698;2023-11-19T07:38:45;5.20;78.60
66928;DHT22;59882;45.624;11.698;2023-11-19T07:41:12;5.30;79.00
66928;DHT22;59882;45.624;11.698;2023-11-19T07:43:44;5.40;78.80
66928;DHT22;59882;45.624;11.698;2023-11-19T07:46:11;5.40;78.90
66928;DHT22;59882;45.624;11.698;2023-11-19T07:48:39;5.50;78.40
66928;DHT22;59882;45.624;11.698;2023-11-19T07:51:04;5.60;78.20
66928;DHT22;59882;45.624;11.698;2023-11-19T07:53:30;5.70;77.90
66928;DHT22;59882;45.624;11.698;2023-11-19T07:55:56;5.70;77.80
66928;DHT22;59882;45.624;11.698;2023-11-19T07:58:22;5.80;77.60
66928;DHT22;59882;45.624;11.698;2023-11-19T08:00:47;5.80;77.30
66928;DHT22;59882;45.624;11.698;2023-11-19T08:03:13;5.90;77.10
66928;DHT22;59882;45.624;11.698;2023-11-19T08:05:38;6.00;76.90
66928;DHT22;59882;45.624;11.698;2023-11-19T08:08:04;6.10;76.70
66928;DHT22;59882;45.624;11.698;2023-11-19T08:10:30;6.20;76.60
66928;DHT22;59882;45.624;11.698;2023-11-19T08:12:55;6.30;76.80
66928;DHT22;59882;45.624;11.698;2023-11-19T08:15:21;6.30;76.40
66928;DHT22;59882;45.624;11.698;2023-11-19T08:17:47;6.40;76.70
66928;DHT22;59882;45.624;11.698;2023-11-19T08:20:12;6.40;76.70
66928;DHT22;59882;45.624;11.698;2023-11-19T08:22:38;6.50;76.50
66928;DHT22;59882;45.624;11.698;2023-11-19T08:25:07;6.60;76.30
66928;DHT22;59882;45.624;11.698;2023-11-19T08:27:33;6.60;76.10
66928;DHT22;59882;45.624;11.698;2023-11-19T08:29:59;6.70;76.00
66928;DHT22;59882;45.624;11.698;2023-11-19T08:32:25;6.80;75.90
66928;DHT22;59882;45.624;11.698;2023-11-19T08:34:51;6.80;75.50
66928;DHT22;59882;45.624;11.698;2023-11-19T08:37:17;6.90;75.10
66928;DHT22;59882;45.624;11.698;2023-11-19T08:39:50;7.00;74.60
66928;DHT22;59882;45.624;11.698;2023-11-19T08:42:19;7.10;73.90
66928;DHT22;59882;45.624;11.698;2023-11-19T08:44:49;7.10;74.20
66928;DHT22;59882;45.624;11.698;2023-11-19T08:47:19;7.20;74.50
66928;DHT22;59882;45.624;11.698;2023-11-19T08:49:45;7.30;74.40
66928;DHT22;59882;45.624;11.698;2023-11-19T08:52:11;7.30;74.60
66928;DHT22;59882;45.624;11.698;2023-11-19T08:54:36;7.40;74.40
66928;DHT22;59882;45.624;11.698;2023-11-19T08:57:03;7.50;74.00
66928;DHT22;59882;45.624;11.698;2023-11-19T08:59:29;7.60;73.50
66928;DHT22;59882;45.624;11.698;2023-11-19T09:01:55;7.70;73.50
66928;DHT22;59882;45.624;11.698;2023-11-19T09:04:21;7.70;73.50
66928;DHT22;59882;45.624;11.698;2023-11-19T09:06:49;7.80;73.40
66928;DHT22;59882;45.624;11.698;2023-11-19T09:09:15;7.90;72.80
66928;DHT22;59882;45.624;11.698;2023-11-19T09:11:40;7.90;71.90
66928;DHT22;59882;45.624;11.698;2023-11-19T09:14:06;8.00;66.90
66928;DHT22;59882;45.624;11.698;2023-11-19T09:16:32;8.10;67.10
66928;DHT22;59882;45.624;11.698;2023-11-19T09:18:58;8.20;66.60
66928;DHT22;59882;45.624;11.698;2023-11-19T09:21:25;8.30;66.60
66928;DHT22;59882;45.624;11.698;2023-11-19T09:23:52;8.30;67.50
66928;DHT22;59882;45.624;11.698;2023-11-19T09:26:19;8.40;68.00
66928;DHT22;59882;45.624;11.698;2023-11-19T09:28:45;8.40;67.70
66928;DHT22;59882;45.624;11.698;2023-11-19T09:31:14;8.50;67.20
66928;DHT22;59882;45.624;11.698;2023-11-19T09:33:40;8.50;68.00
66928;DHT22;59882;45.624;11.698;2023-11-19T09:36:06;8.60;67.10
66928;DHT22;59882;45.624;11.698;2023-11-19T09:38:32;8.60;66.80
66928;DHT22;59882;45.624;11.698;2023-11-19T09:40:58;8.70;65.20
66928;DHT22;59882;45.624;11.698;2023-11-19T09:43:26;8.80;65.20
66928;DHT22;59882;45.624;11.698;2023-11-19T09:45:55;8.80;65.70
66928;DHT22;59882;45.624;11.698;2023-11-19T09:48:21;8.80;67.10
66928;DHT22;59882;45.624;11.698;2023-11-19T09:50:50;8.90;67.90
66928;DHT22;59882;45.624;11.698;2023-11-19T09:53:17;8.90;67.80
66928;DHT22;59882;45.624;11.698;2023-11-19T09:55:43;9.00;66.70
66928;DHT22;59882;45.624;11.698;2023-11-19T09:58:10;9.10;66.90
66928;DHT22;59882;45.624;11.698;2023-11-19T10:00:37;9.20;66.80
66928;DHT22;59882;45.624;11.698;2023-11-19T10:03:04;9.20;65.30
66928;DHT22;59882;45.624;11.698;2023-11-19T10:05:31;9.30;64.50
66928;DHT22;59882;45.624;11.698;2023-11-19T10:07:57;9.30;64.60
66928;DHT22;59882;45.624;11.698;2023-11-19T10:10:22;9.40;63.80
66928;DHT22;59882;45.624;11.698;2023-11-19T10:12:51;9.50;64.00
66928;DHT22;59882;45.624;11.698;2023-11-19T10:15:21;9.60;63.90
66928;DHT22;59882;45.624;11.698;2023-11-19T10:17:51;9.60;63.30
66928;DHT22;59882;45.624;11.698;2023-11-19T10:20:17;9.70;63.20
66928;DHT22;59882;45.624;11.698;2023-11-19T10:22:42;9.70;61.90
66928;DHT22;59882;45.624;11.698;2023-11-19T10:25:38;9.80;61.90
66928;DHT22;59882;45.624;11.698;2023-11-19T10:28:03;9.90;60.10
66928;DHT22;59882;45.624;11.698;2023-11-19T10:30:30;10.00;59.90
66928;DHT22;59882;45.624;11.698;2023-11-19T10:35:27;10.30;59.30
66928;DHT22;59882;45.624;11.698;2023-11-19T10:37:53;10.40;59.10
66928;DHT22;59882;45.624;11.698;2023-11-19T10:40:18;10.60;57.40
66928;DHT22;59882;45.624;11.698;2023-11-19T10:42:44;10.70;58.60
66928;DHT22;59882;45.624;11.698;2023-11-19T10:45:22;10.90;58.60
66928;DHT22;59882;45.624;11.698;2023-11-19T10:47:51;11.10;56.80
66928;DHT22;59882;45.624;11.698;2023-11-19T10:50:17;11.30;55.50
66928;DHT22;59882;45.624;11.698;2023-11-19T10:52:44;11.40;55.40
66928;DHT22;59882;45.624;11.698;2023-11-19T10:55:11;11.50;56.00
66928;DHT22;59882;45.624;11.698;2023-11-19T10:57:43;11.70;53.00
66928;DHT22;59882;45.624;11.698;2023-11-19T11:00:17;11.80;54.00
66928;DHT22;59882;45.624;11.698;2023-11-19T11:02:45;11.90;54.30
66928;DHT22;59882;45.624;11.698;2023-11-19T11:05:12;12.00;53.50
66928;DHT22;59882;45.624;11.698;2023-11-19T11:07:40;12.10;53.10
66928;DHT22;59882;45.624;11.698;2023-11-19T11:10:07;12.30;53.50
66928;DHT22;59882;45.624;11.698;2023-11-19T11:12:37;12.40;51.50
66928;DHT22;59882;45.624;11.698;2023-11-19T11:15:06;12.60;52.50
66928;DHT22;59882;45.624;11.698;2023-11-19T11:17:33;12.80;52.60
66928;DHT22;59882;45.624;11.698;2023-11-19T11:19:59;12.90;50.80
66928;DHT22;59882;45.624;11.698;2023-11-19T11:22:28;12.90;50.90
66928;DHT22;59882;45.624;11.698;2023-11-19T11:25:16;13.10;50.00
66928;DHT22;59882;45.624;11.698;2023-11-19T11:28:59;13.20;49.80
66928;DHT22;59882;45.624;11.698;2023-11-19T11:39:34;13.90;48.80
66928;DHT22;59882;45.624;11.698;2023-11-19T11:45:05;14.30;48.30
66928;DHT22;59882;45.624;11.698;2023-11-19T11:50:16;14.40;46.50
66928;DHT22;59882;45.624;11.698;2023-11-19T11:55:26;14.90;45.30
66928;DHT22;59882;45.624;11.698;2023-11-19T11:57:51;15.70;44.70
66928;DHT22;59882;45.624;11.698;2023-11-19T12:00:29;17.00;45.90
66928;DHT22;59882;45.624;11.698;2023-11-19T12:02:56;17.70;41.80
66928;DHT22;59882;45.624;11.698;2023-11-19T12:05:22;17.90;39.60
66928;DHT22;59882;45.624;11.698;2023-11-19T12:08:01;17.90;41.30
66928;DHT22;59882;45.624;11.698;2023-11-19T12:10:44;17.60;39.40
66928;DHT22;59882;45.624;11.698;2023-11-19T12:13:10;17.40;41.20
66928;DHT22;59882;45.624;11.698;2023-11-19T12:18:31;17.60;42.20
66928;DHT22;59882;45.624;11.698;2023-11-19T12:20:58;18.30;38.80
66928;DHT22;59882;45.624;11.698;2023-11-19T12:23:29;19.00;38.90
66928;DHT22;59882;45.624;11.698;2023-11-19T12:25:55;20.00;38.70
66928;DHT22;59882;45.624;11.698;2023-11-19T12:28:21;20.50;35.60
66928;DHT22;59882;45.624;11.698;2023-11-19T12:30:49;21.50;33.50
66928;DHT22;59882;45.624;11.698;2023-11-19T12:33:15;22.50;31.30
66928;DHT22;59882;45.624;11.698;2023-11-19T12:35:42;23.80;29.70
66928;DHT22;59882;45.624;11.698;2023-11-19T12:38:17;25.30;28.70
66928;DHT22;59882;45.624;11.698;2023-11-19T12:40:43;26.60;26.40
66928;DHT22;59882;45.624;11.698;2023-11-19T12:43:09;27.60;26.60
66928;DHT22;59882;45.624;11.698;2023-11-19T12:45:35;28.70;24.20
66928;DHT22;59882;45.624;11.698;2023-11-19T12:48:05;29.50;25.50
66928;DHT22;59882;45.624;11.698;2023-11-19T12:50:50;29.90;22.70
66928;DHT22;59882;45.624;11.698;2023-11-19T12:53:17;30.30;21.70
66928;DHT22;59882;45.624;11.698;2023-11-19T12:55:42;30.80;23.00
66928;DHT22;59882;45.624;11.698;2023-11-19T12:58:08;31.20;21.50
66928;DHT22;59882;45.624;11.698;2023-11-19T13:00:33;31.50;23.10
66928;DHT22;59882;45.624;11.698;2023-11-19T13:02:59;31.60;21.30
66928;DHT22;59882;45.624;11.698;2023-11-19T13:08:04;31.80;20.40
66928;DHT22;59882;45.624;11.698;2023-11-19T13:11:12;31.60;21.10
66928;DHT22;59882;45.624;11.698;2023-11-19T13:13:19;31.50;21.90
66928;DHT22;59882;45.624;11.698;2023-11-19T13:15:46;31.40;20.80
66928;DHT22;59882;45.624;11.698;2023-11-19T13:18:12;31.10;21.70
66928;DHT22;59882;45.624;11.698;2023-11-19T13:20:39;30.70;20.70
66928;DHT22;59882;45.624;11.698;2023-11-19T13:23:06;30.10;21.40
66928;DHT22;59882;45.624;11.698;2023-11-19T13:25:35;29.60;22.80
66928;DHT22;59882;45.624;11.698;2023-11-19T13:28:01;29.20;23.60
66928;DHT22;59882;45.624;11.698;2023-11-19T13:30:27;28.70;23.70
66928;DHT22;59882;45.624;11.698;2023-11-19T13:32:54;28.20;24.00
66928;DHT22;59882;45.624;11.698;2023-11-19T13:35:21;27.50;24.80
66928;DHT22;59882;45.624;11.698;2023-11-19T13:37:47;26.80;25.90
66928;DHT22;59882;45.624;11.698;2023-11-19T13:40:13;26.20;26.40
66928;DHT22;59882;45.624;11.698;2023-11-19T13:42:41;25.80;26.20
66928;DHT22;59882;45.624;11.698;2023-11-19T13:45:11;25.50;26.50
66928;DHT22;59882;45.624;11.698;2023-11-19T13:47:43;25.20;27.40
66928;DHT22;59882;45.624;11.698;2023-11-19T13:50:13;24.90;27.10
66928;DHT22;59882;45.624;11.698;2023-11-19T13:52:41;24.70;27.70
66928;DHT22;59882;45.624;11.698;2023-11-19T13:55:08;24.30;28.20
66928;DHT22;59882;45.624;11.698;2023-11-19T13:57:41;23.70;28.60
66928;DHT22;59882;45.624;11.698;2023-11-19T14:00:09;22.90;29.20
66928;DHT22;59882;45.624;11.698;2023-11-19T14:02:45;22.00;30.80
66928;DHT22;59882;45.624;11.698;2023-11-19T14:05:12;21.20;32.00
66928;DHT22;59882;45.624;11.698;2023-11-19T14:07:40;20.40;32.40
66928;DHT22;59882;45.624;11.698;2023-11-19T14:10:07;19.80;33.60
66928;DHT22;59882;45.624;11.698;2023-11-19T14:12:34;19.20;34.50
66928;DHT22;59882;45.624;11.698;2023-11-19T14:15:05;18.70;35.00
66928;DHT22;59882;45.624;11.698;2023-11-19T14:17:38;18.20;36.20
66928;DHT22;59882;45.624;11.698;2023-11-19T14:20:03;17.80;36.80
66928;DHT22;59882;45.624;11.698;2023-11-19T14:22:42;17.40;37.20
66928;DHT22;59882;45.624;11.698;2023-11-19T14:25:08;17.10;38.30
66928;DHT22;59882;45.624;11.698;2023-11-19T14:27:36;16.80;39.00
66928;DHT22;59882;45.624;11.698;2023-11-19T14:30:07;16.50;39.60
66928;DHT22;59882;45.624;11.698;2023-11-19T14:32:35;16.30;40.40
66928;DHT22;59882;45.624;11.698;2023-11-19T14:35:03;16.00;41.20
66928;DHT22;59882;45.624;11.698;2023-11-19T14:37:29;15.90;41.50
66928;DHT22;59882;45.624;11.698;2023-11-19T14:39:56;15.70;41.80
66928;DHT22;59882;45.624;11.698;2023-11-19T14:42:23;15.50;42.20
66928;DHT22;59882;45.624;11.698;2023-11-19T14:44:50;15.30;42.40
66928;DHT22;59882;45.624;11.698;2023-11-19T14:47:18;15.20;42.70
66928;DHT22;59882;45.624;11.698;2023-11-19T14:49:44;15.00;43.40
66928;DHT22;59882;45.624;11.698;2023-11-19T14:52:10;14.90;43.80
66928;DHT22;59882;45.624;11.698;2023-11-19T14:54:36;14.70;44.40
66928;DHT22;59882;45.624;11.698;2023-11-19T14:57:02;14.60;44.80
66928;DHT22;59882;45.624;11.698;2023-11-19T14:59:28;14.40;45.10
66928;DHT22;59882;45.624;11.698;2023-11-19T15:01:54;14.30;45.90
66928;DHT22;59882;45.624;11.698;2023-11-19T15:04:20;14.20;46.50
66928;DHT22;59882;45.624;11.698;2023-11-19T15:06:45;14.10;46.20
66928;DHT22;59882;45.624;11.698;2023-11-19T15:09:11;14.00;46.50
66928;DHT22;59882;45.624;11.698;2023-11-19T15:11:42;13.90;46.90
66928;DHT22;59882;45.624;11.698;2023-11-19T15:14:08;13.80;47.30
66928;DHT22;59882;45.624;11.698;2023-11-19T15:16:34;13.70;47.80
66928;DHT22;59882;45.624;11.698;2023-11-19T15:19:00;13.60;48.10
66928;DHT22;59882;45.624;11.698;2023-11-19T15:21:29;13.50;48.50
66928;DHT22;59882;45.624;11.698;2023-11-19T15:23:55;13.40;49.00
66928;DHT22;59882;45.624;11.698;2023-11-19T15:26:21;13.40;49.50
66928;DHT22;59882;45.624;11.698;2023-11-19T15:28:47;13.30;49.80
66928;DHT22;59882;45.624;11.698;2023-11-19T15:31:13;13.20;50.20
66928;DHT22;59882;45.624;11.698;2023-11-19T15:33:40;13.10;50.70
66928;DHT22;59882;45.624;11.698;2023-11-19T15:36:06;13.00;51.10
66928;DHT22;59882;45.624;11.698;2023-11-19T15:38:35;12.90;51.40
66928;DHT22;59882;45.624;11.698;2023-11-19T15:41:01;12.80;51.60
66928;DHT22;59882;45.624;11.698;2023-11-19T15:43:28;12.70;52.00
66928;DHT22;59882;45.624;11.698;2023-11-19T15:45:54;12.60;52.40
66928;DHT22;59882;45.624;11.698;2023-11-19T15:48:20;12.50;52.80
66928;DHT22;59882;45.624;11.698;2023-11-19T15:50:45;12.50;53.20
66928;DHT22;59882;45.624;11.698;2023-11-19T15:53:11;12.40;54.00